Seattle, WA (98125)

5:09 PM PDT on July 27, 2016 (GMT -0700)
North Seattle - Lake City | | Change Station

Elev 213 ft 47.72 °N, 122.30 °W | Updated 3 seconds ago

Partly Cloudy
Partly Cloudy
81.2 °F
Feels Like 82 °F
N
0.0
Wind Variable Wind from SSE
Gusts 4.0 mph

Today
High -- | Low -- °F
--% Chance of Precip.
Yesterday
High -- | Low -- °F
Precip. -- in
Pressure 30.07 in
Visibility 10.0 miles
Clouds Few 25000 ft
Heat Index 82 °F
Dew Point 61 °F
Humidity 51%
Rainfall 0.00 in
Snow Depth Not available.
5:40 AM 8:49 PM
Last Quarter, 38% visible
METAR KBFI 272353Z 32007G15KT 290V010 10SM FEW250 28/13 A3007 RMK AO2 SLP183 T02830128 10283 20222 57013
Pressure 30.07 in
Visibility 10.0 miles
Clouds Few 25000 ft
Heat Index 82 °F
Dew Point 61 °F
Humidity 51%
Rainfall 0.00 in
Snow Depth Not available.
5:40 AM 8:49 PM
Last Quarter, 38% visible
METAR KBFI 272353Z 32007G15KT 290V010 10SM FEW250 28/13 A3007 RMK AO2 SLP183 T02830128 10283 20222 57013

10-Day Weather Forecast

Almanac

Astronomy

Jul. 27, 2016 Rise Set
Actual Time
Civil Twilight
Nautical Twilight
Astronomical Twilight
Moon
Length of Visible Light
Length of Day
Tomorrow will be .
, % of the Moon is Illuminated

Today's Extremes

State Highs State Lows

Community

WunderPhotos

Upload Photos

1,927,963 photos uploaded!

WunderBlog® & News

Nearby

Air Quality

  Air Quality AQ Index Pollutant
Not available.

Snow Depth

Station Depth Elevation

Earthquake Activity

City Distance Mag. Time & Date
Minimum magnitude displayed is 2.5.

Coastal Water Temperatures

Place Temperature

Stations

Nearby Weather Stations

Station Location Temp. Windchill Dew Point Humidity Wind Precip. Elev Updated Type
                   

Watches & Warnings

There are currently no watches in effect.